createdAt,value
2023-02-17T00:01:34.523Z,71.10
2023-02-17T00:04:02.107Z,64.43
2023-02-17T00:06:30.806Z,65.67
2023-02-17T00:09:00.203Z,62.40
2023-02-17T00:11:28.552Z,65.63
2023-02-17T00:13:56.726Z,56.70
2023-02-17T00:16:26.704Z,53.97
2023-02-17T00:18:59.933Z,52.93
2023-02-17T00:21:30.865Z,47.63
2023-02-17T00:23:59.547Z,49.07
2023-02-17T00:26:26.905Z,56.23
2023-02-17T00:28:55.208Z,55.67
2023-02-17T00:31:24.381Z,50.33
2023-02-17T00:33:56.204Z,56.00
2023-02-17T00:36:24.920Z,51.50
2023-02-17T00:38:55.610Z,52.53
2023-02-17T00:41:24.174Z,50.20
2023-02-17T00:43:51.516Z,54.93
2023-02-17T00:46:19.586Z,70.50
2023-02-17T00:48:48.302Z,63.20
2023-02-17T00:51:17.043Z,63.57
2023-02-17T00:53:45.324Z,61.17
2023-02-17T00:56:13.116Z,56.93
2023-02-17T00:58:41.505Z,56.33
2023-02-17T01:01:10.434Z,55.73
2023-02-17T01:03:42.108Z,53.47
2023-02-17T01:06:18.415Z,46.73
2023-02-17T01:08:45.749Z,45.20
2023-02-17T01:11:21.654Z,46.77
2023-02-17T01:13:49.589Z,56.77
2023-02-17T01:16:29.241Z,63.03
2023-02-17T01:18:59.638Z,61.20
2023-02-17T01:21:29.052Z,56.67
2023-02-17T01:23:59.217Z,60.13
2023-02-17T01:26:28.549Z,60.10
2023-02-17T01:28:56.458Z,59.97
2023-02-17T01:31:27.296Z,58.27
2023-02-17T01:33:57.616Z,60.33
2023-02-17T01:36:25.078Z,55.67
2023-02-17T01:38:53.354Z,54.67
2023-02-17T01:41:22.936Z,61.00
2023-02-17T01:44:12.780Z,59.40
2023-02-17T01:46:43.272Z,59.00
2023-02-17T01:49:21.352Z,53.93
2023-02-17T01:51:54.961Z,51.93
2023-02-17T01:54:28.670Z,58.20
2023-02-17T01:56:58.764Z,55.17
2023-02-17T01:59:26.478Z,51.67
2023-02-17T02:01:59.167Z,52.93
2023-02-17T02:04:31.825Z,56.07
2023-02-17T02:06:59.641Z,57.53
2023-02-17T02:09:38.522Z,53.03
2023-02-17T02:12:22.456Z,55.20
2023-02-17T02:14:50.967Z,55.30
2023-02-17T02:17:36.760Z,52.30
2023-02-17T02:20:20.043Z,56.43
2023-02-17T02:23:18.182Z,55.40
2023-02-17T02:26:07.680Z,57.67
2023-02-17T02:29:03.246Z,57.67
2023-02-17T02:31:42.602Z,58.60
2023-02-17T02:34:14.376Z,59.73
2023-02-17T02:36:54.945Z,54.47
2023-02-17T02:39:29.290Z,62.40
2023-02-17T02:42:01.653Z,56.03
2023-02-17T02:44:29.091Z,64.10
2023-02-17T02:47:27.563Z,55.63
2023-02-17T02:49:55.700Z,53.93
2023-02-17T02:52:37.234Z,55.20
2023-02-17T02:55:20.662Z,49.40
2023-02-17T02:57:55.603Z,51.63
2023-02-17T03:00:26.086Z,53.03
2023-02-17T03:02:59.381Z,54.97
2023-02-17T03:05:43.512Z,51.23
2023-02-17T03:08:15.077Z,51.50
2023-02-17T03:10:48.246Z,48.47
2023-02-17T03:13:17.429Z,51.73
2023-02-17T03:15:45.294Z,47.70
2023-02-17T03:18:13.242Z,47.60
2023-02-17T03:20:51.033Z,46.37
2023-02-17T03:23:19.173Z,51.07
2023-02-17T03:25:47.996Z,44.07
2023-02-17T03:28:16.036Z,43.57
2023-02-17T03:30:45.530Z,47.20
2023-02-17T03:33:12.862Z,50.57
2023-02-17T03:35:40.343Z,42.73
2023-02-17T03:38:07.707Z,44.50
2023-02-17T03:40:35.329Z,42.87
2023-02-17T03:43:02.653Z,43.90
2023-02-17T03:45:30.061Z,45.30
2023-02-17T03:47:57.498Z,39.47
2023-02-17T03:50:25.304Z,42.37
2023-02-17T03:52:52.731Z,42.03
2023-02-17T03:55:20.100Z,39.03
2023-02-17T03:57:47.573Z,45.73
2023-02-17T04:00:15.427Z,45.50
2023-02-17T04:02:44.204Z,44.17
2023-02-17T04:05:11.736Z,40.07
2023-02-17T04:07:39.474Z,39.67
2023-02-17T04:10:09.507Z,41.47
2023-02-17T04:12:37.191Z,39.77
2023-02-17T04:15:05.015Z,43.33
2023-02-17T04:17:32.803Z,42.80
2023-02-17T04:20:00.262Z,42.03
2023-02-17T04:22:27.652Z,55.40
2023-02-17T04:24:54.950Z,68.03
2023-02-17T04:27:22.229Z,68.33
2023-02-17T04:29:51.297Z,53.03
2023-02-17T04:32:18.645Z,55.77
2023-02-17T04:34:45.926Z,61.23
2023-02-17T04:37:13.223Z,51.90
2023-02-17T04:39:40.511Z,52.53
2023-02-17T04:42:07.830Z,53.20
2023-02-17T04:44:35.490Z,58.37
2023-02-17T04:47:02.779Z,42.33
2023-02-17T04:49:30.322Z,43.40
2023-02-17T04:51:57.744Z,32.17
2023-02-17T04:54:25.068Z,27.70
2023-02-17T04:56:52.347Z,25.53
2023-02-17T04:59:19.649Z,28.67
2023-02-17T05:01:47.053Z,30.80
2023-02-17T05:04:14.692Z,31.77
2023-02-17T05:06:41.964Z,28.43
2023-02-17T05:09:09.276Z,26.93
2023-02-17T05:11:36.565Z,26.87
2023-02-17T05:14:03.966Z,28.23
2023-02-17T05:16:31.262Z,30.07
2023-02-17T05:18:58.570Z,20.90
2023-02-17T05:21:26.181Z,19.23
2023-02-17T05:23:53.890Z,20.07
2023-02-17T05:26:21.326Z,12.60
2023-02-17T05:28:48.776Z,16.40
2023-02-17T05:31:16.472Z,13.67
2023-02-17T05:33:43.905Z,14.07
2023-02-17T05:36:12.026Z,12.70
2023-02-17T05:38:40.496Z,12.67
2023-02-17T05:41:08.274Z,16.13
2023-02-17T05:43:35.654Z,13.67
2023-02-17T05:46:07.057Z,14.10
2023-02-17T05:48:34.766Z,13.80
2023-02-17T05:51:02.605Z,13.90
2023-02-17T05:53:30.073Z,11.93
2023-02-17T05:55:57.757Z,11.73
2023-02-17T05:58:25.237Z,13.83
2023-02-17T06:00:52.498Z,14.47
2023-02-17T06:03:19.802Z,16.97
2023-02-17T06:05:47.627Z,14.70
2023-02-17T06:08:14.915Z,14.60
2023-02-17T06:10:42.839Z,17.67
2023-02-17T06:13:10.310Z,15.57
2023-02-17T06:15:37.711Z,13.87
2023-02-17T06:18:05.017Z,13.70
2023-02-17T06:20:32.661Z,13.47
2023-02-17T06:22:59.952Z,17.87
2023-02-17T06:25:27.293Z,17.63
2023-02-17T06:27:54.733Z,13.77
2023-02-17T06:30:22.219Z,13.57
2023-02-17T06:32:49.885Z,17.77
2023-02-17T06:35:17.326Z,18.63
2023-02-17T06:37:44.711Z,18.67
2023-02-17T06:40:12.795Z,21.07
2023-02-17T06:42:40.111Z,22.00
2023-02-17T06:45:07.974Z,16.43
2023-02-17T06:47:35.732Z,17.93
2023-02-17T06:50:03.198Z,14.00
2023-02-17T06:52:30.582Z,12.07
2023-02-17T06:54:57.881Z,11.50
2023-02-17T06:57:25.648Z,11.17
2023-02-17T06:59:52.986Z,10.77
2023-02-17T07:02:20.355Z,13.53
2023-02-17T07:04:47.708Z,15.50
2023-02-17T07:07:15.232Z,15.90
2023-02-17T07:09:42.533Z,14.47
2023-02-17T07:12:09.891Z,17.53
2023-02-17T07:14:37.200Z,22.03
2023-02-17T07:17:04.525Z,17.00
2023-02-17T07:19:31.867Z,20.20
2023-02-17T07:21:59.180Z,19.33
2023-02-17T07:24:26.981Z,25.73
2023-02-17T07:26:56.099Z,23.90
2023-02-17T07:29:23.905Z,21.70
2023-02-17T07:31:51.249Z,20.13
2023-02-17T07:34:18.740Z,22.27
2023-02-17T07:36:46.094Z,18.63
2023-02-17T07:39:13.580Z,24.97
2023-02-17T07:41:41.033Z,23.93
2023-02-17T07:44:10.636Z,19.97
2023-02-17T07:46:39.763Z,26.77
2023-02-17T07:49:07.215Z,23.93
2023-02-17T07:51:34.740Z,22.73
2023-02-17T07:54:02.675Z,31.97
2023-02-17T07:56:30.103Z,21.73
2023-02-17T07:58:57.577Z,25.60
2023-02-17T08:01:25.625Z,29.00
2023-02-17T08:03:53.088Z,23.70
2023-02-17T08:06:22.872Z,20.00
2023-02-17T08:09:09.092Z,20.03
2023-02-17T08:11:55.435Z,17.83
2023-02-17T08:14:24.760Z,17.20
2023-02-17T08:16:52.547Z,23.10
2023-02-17T08:19:20.062Z,20.73
2023-02-17T08:21:47.680Z,23.27
2023-02-17T08:24:16.354Z,26.27
2023-02-17T08:26:43.729Z,27.70
2023-02-17T08:29:11.319Z,23.97
2023-02-17T08:31:38.927Z,24.40
2023-02-17T08:34:08.495Z,17.37
2023-02-17T08:36:39.830Z,20.13
2023-02-17T08:39:12.084Z,24.07
2023-02-17T08:41:39.797Z,23.07
2023-02-17T08:44:10.197Z,24.27
2023-02-17T08:46:38.147Z,18.80
2023-02-17T08:49:06.680Z,26.63
2023-02-17T08:51:35.064Z,22.77
2023-02-17T08:54:04.486Z,19.03
2023-02-17T08:56:31.827Z,17.90
2023-02-17T08:59:00.166Z,19.90
2023-02-17T09:01:27.683Z,19.60
2023-02-17T09:03:57.271Z,14.83
2023-02-17T09:06:31.214Z,29.43
2023-02-17T09:08:58.627Z,15.90
2023-02-17T09:11:26.036Z,15.53
2023-02-17T09:13:53.574Z,18.53
2023-02-17T09:16:22.164Z,15.73
2023-02-17T09:18:49.636Z,16.97
2023-02-17T09:21:18.014Z,15.63
2023-02-17T09:23:45.537Z,18.93
2023-02-17T09:26:15.294Z,16.63
2023-02-17T09:28:43.118Z,14.07
2023-02-17T09:31:11.362Z,16.27
2023-02-17T09:33:39.902Z,16.47
2023-02-17T09:36:09.856Z,15.47
2023-02-17T09:38:41.853Z,17.70
2023-02-17T09:41:34.039Z,12.60
2023-02-17T09:44:02.160Z,16.27
2023-02-17T09:46:35.736Z,10.93
2023-02-17T09:49:12.523Z,11.00
2023-02-17T09:51:48.295Z,11.50
2023-02-17T09:54:18.354Z,10.77
2023-02-17T09:56:48.495Z,8.67
2023-02-17T09:59:19.908Z,16.60
2023-02-17T10:01:49.418Z,10.43
2023-02-17T10:04:22.577Z,17.00
2023-02-17T10:06:56.560Z,14.20
2023-02-17T10:09:36.103Z,5.50
2023-02-17T10:12:09.788Z,5.27
2023-02-17T10:14:43.326Z,9.23
2023-02-17T10:17:29.461Z,6.70
2023-02-17T10:20:17.977Z,4.73
2023-02-17T10:22:54.878Z,5.67
2023-02-17T10:25:52.970Z,3.20
2023-02-17T10:28:32.244Z,3.40
2023-02-17T10:31:05.654Z,5.20
2023-02-17T10:33:38.588Z,3.80
2023-02-17T10:36:12.159Z,9.70
2023-02-17T10:38:42.541Z,2.97
2023-02-17T10:41:14.818Z,8.07
2023-02-17T10:43:44.058Z,5.60
2023-02-17T10:46:17.375Z,9.20
2023-02-17T10:48:49.629Z,6.90
2023-02-17T10:51:22.257Z,5.07
2023-02-17T10:53:59.357Z,4.47
2023-02-17T10:56:38.244Z,6.93
2023-02-17T10:59:20.958Z,4.60
2023-02-17T11:01:49.180Z,4.07
2023-02-17T11:04:16.513Z,5.20
2023-02-17T11:06:52.382Z,2.87
2023-02-17T11:09:31.994Z,7.63
2023-02-17T11:12:27.937Z,5.83
2023-02-17T11:14:56.304Z,4.47
2023-02-17T11:17:35.197Z,2.20
2023-02-17T11:20:30.641Z,3.00
2023-02-17T11:23:08.149Z,3.80
2023-02-17T11:25:37.728Z,3.87
2023-02-17T11:28:10.911Z,4.27
2023-02-17T11:30:40.201Z,4.17
2023-02-17T11:33:15.160Z,3.67
2023-02-17T11:35:42.381Z,4.77
2023-02-17T11:38:15.733Z,3.73
2023-02-17T11:40:56.409Z,11.00
2023-02-17T11:43:24.589Z,3.47
2023-02-17T11:46:10.513Z,3.50
2023-02-17T11:49:09.281Z,3.67
2023-02-17T11:51:58.929Z,8.13
2023-02-17T11:55:03.833Z,2.80
2023-02-17T11:57:45.594Z,5.03
2023-02-17T12:00:17.860Z,4.43
2023-02-17T12:02:45.291Z,6.77
2023-02-17T12:05:35.734Z,7.60
2023-02-17T12:08:16.594Z,5.83
2023-02-17T12:10:59.259Z,2.67
2023-02-17T12:13:36.102Z,5.30
2023-02-17T12:16:31.178Z,5.33
2023-02-17T12:19:13.452Z,6.53
2023-02-17T12:22:02.798Z,3.70
2023-02-17T12:24:51.174Z,3.13
2023-02-17T12:27:46.651Z,2.47
2023-02-17T12:30:52.814Z,5.57
2023-02-17T12:33:37.433Z,3.00
2023-02-17T12:36:30.317Z,4.70
2023-02-17T12:39:02.269Z,5.33
2023-02-17T12:41:36.688Z,8.10
2023-02-17T12:44:18.813Z,2.23
2023-02-17T12:46:53.521Z,5.00
2023-02-17T12:49:30.006Z,7.37
2023-02-17T12:52:26.161Z,4.37
2023-02-17T12:55:00.716Z,5.07
2023-02-17T12:57:47.579Z,1.73
2023-02-17T13:00:23.339Z,3.27
2023-02-17T13:02:50.860Z,2.87
2023-02-17T13:05:34.458Z,2.73
2023-02-17T13:08:10.831Z,3.23
2023-02-17T13:10:39.970Z,6.20
2023-02-17T13:13:25.303Z,3.73
2023-02-17T13:16:02.018Z,5.67
2023-02-17T13:18:33.551Z,3.73
2023-02-17T13:21:28.514Z,4.07
2023-02-17T13:24:01.685Z,2.87
2023-02-17T13:26:34.901Z,2.13
2023-02-17T13:29:20.825Z,3.50
2023-02-17T13:31:57.310Z,4.57
2023-02-17T13:34:33.151Z,4.47
2023-02-17T13:37:04.107Z,2.30
2023-02-17T13:39:33.556Z,2.00
2023-02-17T13:42:01.937Z,1.67
2023-02-17T13:44:39.170Z,3.97
2023-02-17T13:47:16.986Z,3.23
2023-02-17T13:49:52.727Z,3.60
2023-02-17T13:52:24.711Z,1.73
2023-02-17T13:55:03.596Z,3.10
2023-02-17T13:57:33.852Z,2.13
2023-02-17T14:00:21.552Z,2.90
2023-02-17T14:02:53.352Z,2.40
2023-02-17T14:05:27.065Z,1.20
2023-02-17T14:07:59.790Z,1.93
2023-02-17T14:10:27.760Z,1.20
2023-02-17T14:12:55.690Z,1.63
2023-02-17T14:15:28.724Z,4.20
2023-02-17T14:17:56.389Z,1.60
2023-02-17T14:20:35.211Z,2.37
2023-02-17T14:23:14.222Z,1.50
2023-02-17T14:25:46.535Z,3.83
2023-02-17T14:28:21.897Z,1.80
2023-02-17T14:30:49.752Z,5.20
2023-02-17T14:33:17.224Z,4.27
2023-02-17T14:35:55.003Z,5.37
2023-02-17T14:38:28.891Z,2.40
2023-02-17T14:40:56.237Z,4.03
2023-02-17T14:43:24.261Z,2.70
2023-02-17T14:45:52.281Z,2.27
2023-02-17T14:48:19.801Z,2.63
2023-02-17T14:50:48.656Z,3.37
2023-02-17T14:53:22.282Z,2.93
2023-02-17T14:56:10.570Z,5.03
2023-02-17T14:58:37.919Z,1.50
2023-02-17T15:01:05.768Z,3.80
2023-02-17T15:03:33.093Z,6.27
2023-02-17T15:06:00.734Z,2.03
2023-02-17T15:08:33.848Z,4.23
2023-02-17T15:11:02.107Z,2.20
2023-02-17T15:13:32.183Z,2.97
2023-02-17T15:16:00.005Z,3.87
2023-02-17T15:18:28.276Z,3.50
2023-02-17T15:20:56.773Z,1.40
2023-02-17T15:23:27.501Z,1.27
2023-02-17T15:25:56.091Z,1.43
2023-02-17T15:28:23.581Z,1.93
2023-02-17T15:30:56.361Z,3.63
2023-02-17T15:33:24.691Z,3.10
2023-02-17T15:35:54.379Z,3.07
2023-02-17T15:38:27.188Z,6.53
2023-02-17T15:40:58.698Z,5.33
2023-02-17T15:46:15.959Z,1.30
2023-02-17T15:48:45.208Z,1.93
2023-02-17T15:51:19.255Z,4.00
2023-02-17T15:53:49.666Z,3.45
2023-02-17T15:56:22.441Z,3.53
2023-02-17T15:58:50.633Z,2.53
2023-02-17T16:01:29.729Z,3.13
2023-02-17T16:03:58.026Z,2.37
2023-02-17T16:06:26.584Z,6.87
2023-02-17T16:08:55.186Z,4.90
2023-02-17T16:11:23.373Z,4.23
2023-02-17T16:13:51.634Z,3.80
2023-02-17T16:16:33.074Z,2.73
2023-02-17T16:19:01.156Z,5.93
2023-02-17T16:21:28.846Z,3.63
2023-02-17T16:23:59.699Z,5.07
2023-02-17T16:26:34.726Z,1.83
2023-02-17T16:29:04.275Z,2.83
2023-02-17T16:31:32.519Z,3.20
2023-02-17T16:34:00.445Z,1.90
2023-02-17T16:36:32.349Z,4.57
2023-02-17T16:39:03.876Z,4.33
2023-02-17T16:41:31.257Z,2.93
2023-02-17T16:43:58.597Z,2.77
2023-02-17T16:46:31.883Z,5.67
2023-02-17T16:49:01.064Z,3.40
2023-02-17T16:51:28.555Z,6.20
2023-02-17T16:53:56.241Z,3.23
2023-02-17T16:56:30.058Z,3.17
2023-02-17T16:58:57.536Z,3.43
2023-02-17T17:01:24.927Z,4.67
2023-02-17T17:03:52.275Z,3.33
2023-02-17T17:06:28.206Z,4.60
2023-02-17T17:08:56.423Z,5.30
2023-02-17T17:14:11.521Z,2.37
2023-02-17T17:16:40.726Z,2.60
2023-02-17T17:19:10.726Z,1.53
2023-02-17T17:21:38.376Z,3.20
2023-02-17T17:24:05.899Z,4.23
2023-02-17T17:26:40.290Z,3.97
2023-02-17T17:29:09.936Z,2.37
2023-02-17T17:31:37.587Z,2.17
2023-02-17T17:34:05.208Z,4.10
2023-02-17T17:36:41.194Z,2.87
2023-02-17T17:39:17.792Z,4.13
2023-02-17T17:41:45.572Z,2.10
2023-02-17T17:44:31.740Z,4.33
2023-02-17T17:47:01.552Z,1.93
2023-02-17T17:49:28.869Z,4.47
2023-02-17T17:51:56.570Z,3.07
2023-02-17T17:54:23.894Z,7.40
2023-02-17T17:56:51.262Z,3.47
2023-02-17T17:59:19.052Z,2.90
2023-02-17T18:01:46.594Z,1.93
2023-02-17T18:04:14.406Z,3.37
2023-02-17T18:06:48.433Z,2.73
2023-02-17T18:09:32.092Z,5.40
2023-02-17T18:12:04.518Z,3.87
2023-02-17T18:14:32.770Z,4.17
2023-02-17T18:17:00.177Z,5.37
2023-02-17T18:19:28.957Z,1.80
2023-02-17T18:21:56.519Z,2.70
2023-02-17T18:24:24.207Z,4.03
2023-02-17T18:26:52.326Z,2.33
2023-02-17T18:32:05.129Z,3.10
2023-02-17T18:34:32.497Z,3.20
2023-02-17T18:37:00.421Z,4.57
2023-02-17T18:39:27.733Z,3.07
2023-02-17T18:41:55.318Z,5.00
2023-02-17T18:44:22.650Z,3.37
2023-02-17T18:46:50.111Z,4.67
2023-02-17T18:49:17.508Z,3.97
2023-02-17T18:51:44.954Z,4.20
2023-02-17T18:54:13.204Z,2.17
2023-02-17T18:56:40.650Z,2.50
2023-02-17T18:59:08.010Z,2.30
2023-02-17T19:01:39.474Z,3.30
2023-02-17T19:04:09.553Z,1.50
2023-02-17T19:06:37.675Z,3.37
2023-02-17T19:09:05.331Z,2.43
2023-02-17T19:11:33.874Z,1.67
2023-02-17T19:14:03.353Z,1.83
2023-02-17T19:16:32.330Z,2.70
2023-02-17T19:19:00.841Z,2.23
2023-02-17T19:21:28.292Z,1.80
2023-02-17T19:23:56.201Z,2.23
2023-02-17T19:26:23.703Z,3.37
2023-02-17T19:28:51.078Z,1.50
2023-02-17T19:31:20.863Z,1.83
2023-02-17T19:33:48.488Z,3.00
2023-02-17T19:36:18.906Z,2.87
2023-02-17T19:38:47.536Z,1.60
2023-02-17T19:41:15.836Z,1.63
2023-02-17T19:43:44.171Z,2.33
2023-02-17T19:46:19.602Z,1.63
2023-02-17T19:48:47.165Z,1.43
2023-02-17T19:51:14.903Z,1.00
2023-02-17T19:53:43.758Z,2.63
2023-02-17T19:56:13.020Z,0.97
2023-02-17T19:58:42.180Z,1.00
2023-02-17T20:01:15.820Z,4.17
2023-02-17T20:03:45.009Z,3.40
2023-02-17T20:06:21.515Z,4.33
2023-02-17T20:08:53.993Z,2.00
2023-02-17T20:11:21.880Z,0.93
2023-02-17T20:13:49.664Z,1.63
2023-02-17T20:16:17.915Z,1.37
2023-02-17T20:18:48.658Z,1.80
2023-02-17T20:21:20.675Z,1.20
2023-02-17T20:23:48.617Z,1.43
2023-02-17T20:26:34.084Z,1.60
2023-02-17T20:29:01.856Z,0.87
2023-02-17T20:31:29.862Z,3.50
2023-02-17T20:33:58.945Z,0.90
2023-02-17T20:36:26.374Z,1.53
2023-02-17T20:38:54.231Z,0.80
2023-02-17T20:41:23.803Z,3.37
2023-02-17T20:43:52.430Z,1.30
2023-02-17T20:46:28.506Z,1.10
2023-02-17T20:48:56.947Z,1.13
2023-02-17T20:51:25.028Z,1.40
2023-02-17T20:53:53.487Z,1.60
2023-02-17T20:56:41.642Z,1.17
2023-02-17T20:59:10.278Z,1.90
2023-02-17T21:01:40.787Z,1.50
2023-02-17T21:04:08.807Z,2.73
2023-02-17T21:06:41.331Z,1.40
2023-02-17T21:09:14.843Z,4.43
2023-02-17T21:11:43.065Z,1.47
2023-02-17T21:14:10.969Z,1.93
2023-02-17T21:16:38.986Z,1.50
2023-02-17T21:19:06.391Z,2.50
2023-02-17T21:21:37.397Z,2.00
2023-02-17T21:24:05.011Z,2.70
2023-02-17T21:26:33.232Z,1.70
2023-02-17T21:29:00.631Z,1.73
2023-02-17T21:31:29.308Z,2.63
2023-02-17T21:33:58.769Z,1.93
2023-02-17T21:36:29.057Z,1.70
2023-02-17T21:38:57.493Z,1.90
2023-02-17T21:41:27.739Z,1.50
2023-02-17T21:44:17.020Z,1.60
2023-02-17T21:46:46.578Z,2.10
2023-02-17T21:49:14.426Z,1.70
2023-02-17T21:51:42.385Z,4.03
2023-02-17T21:54:10.320Z,1.97
2023-02-17T21:56:38.100Z,2.60
2023-02-17T21:59:24.165Z,1.97
2023-02-17T22:01:52.787Z,2.30
2023-02-17T22:04:20.546Z,4.07
2023-02-17T22:06:47.992Z,2.10
2023-02-17T22:09:18.175Z,1.60
2023-02-17T22:14:31.005Z,1.50
2023-02-17T22:16:58.466Z,5.77
2023-02-17T22:19:26.533Z,1.43
2023-02-17T22:21:55.089Z,1.50
2023-02-17T22:24:22.820Z,1.50
2023-02-17T22:26:50.789Z,2.13
2023-02-17T22:29:18.293Z,1.47
2023-02-17T22:31:46.955Z,1.83
2023-02-17T22:34:15.530Z,1.70
2023-02-17T22:36:43.496Z,1.80
2023-02-17T22:39:10.934Z,1.90
2023-02-17T22:41:39.588Z,2.17
2023-02-17T22:44:08.014Z,1.50
2023-02-17T22:46:36.349Z,1.30
2023-02-17T22:49:03.717Z,2.07
2023-02-17T22:51:35.456Z,1.30
2023-02-17T22:54:21.422Z,1.63
2023-02-17T22:56:48.847Z,2.40
2023-02-17T22:59:16.093Z,1.73
2023-02-17T23:01:43.719Z,2.57
2023-02-17T23:04:13.900Z,1.97
2023-02-17T23:06:41.446Z,1.40
2023-02-17T23:09:11.947Z,1.20
2023-02-17T23:14:38.030Z,3.50
2023-02-17T23:17:11.221Z,1.67
2023-02-17T23:19:39.562Z,3.73
2023-02-17T23:22:10.248Z,1.63
2023-02-17T23:24:38.217Z,1.67
2023-02-17T23:27:05.741Z,1.50
2023-02-17T23:29:33.370Z,1.40
2023-02-17T23:32:01.490Z,2.30
2023-02-17T23:34:29.155Z,1.63
2023-02-17T23:36:57.495Z,1.20
2023-02-17T23:39:25.349Z,1.40
2023-02-17T23:41:52.611Z,1.40
2023-02-17T23:44:20.044Z,1.30
2023-02-17T23:46:47.520Z,2.47
2023-02-17T23:49:17.078Z,1.03
2023-02-17T23:51:46.206Z,0.90
2023-02-17T23:54:14.069Z,1.23
2023-02-17T23:56:41.539Z,1.10
2023-02-17T23:59:08.922Z,1.20
